createdAt,value
2022-08-09T00:01:43.125Z,2.80
2022-08-09T00:04:25.020Z,3.10
2022-08-09T00:07:07.638Z,2.80
2022-08-09T00:09:40.515Z,2.50
2022-08-09T00:12:22.314Z,3.33
2022-08-09T00:15:06.388Z,2.72
2022-08-09T00:18:05.381Z,3.13
2022-08-09T00:20:26.561Z,2.67
2022-08-09T00:23:04.887Z,3.13
2022-08-09T00:25:51.672Z,2.60
2022-08-09T00:28:22.907Z,3.00
2022-08-09T00:30:56.980Z,3.20
2022-08-09T00:33:32.742Z,2.90
2022-08-09T00:36:17.241Z,2.90
2022-08-09T00:38:46.624Z,2.60
2022-08-09T00:44:09.846Z,2.75
2022-08-09T00:44:24.563Z,2.92
2022-08-09T00:47:05.203Z,2.90
2022-08-09T00:49:38.460Z,2.72
2022-08-09T00:52:17.452Z,2.78
2022-08-09T00:54:48.456Z,3.05
2022-08-09T00:57:33.712Z,2.80
2022-08-09T01:00:20.999Z,3.22
2022-08-09T01:03:02.220Z,3.50
2022-08-09T01:05:51.590Z,3.10
2022-08-09T01:08:32.994Z,3.60
2022-08-09T01:11:18.769Z,3.40
2022-08-09T01:14:00.202Z,3.47
2022-08-09T01:16:38.861Z,3.17
2022-08-09T01:19:40.191Z,3.60
2022-08-09T01:24:03.285Z,3.08
2022-08-09T01:26:36.046Z,2.83
2022-08-09T01:29:07.642Z,2.50
2022-08-09T01:32:29.647Z,3.28
2022-08-09T01:34:30.191Z,3.80
2022-08-09T01:37:01.567Z,3.50
2022-08-09T01:39:35.684Z,3.30
2022-08-09T01:42:08.096Z,2.72
2022-08-09T01:44:42.168Z,3.58
2022-08-09T01:47:13.966Z,3.13
2022-08-09T01:49:48.826Z,3.00
2022-08-09T01:52:25.103Z,3.50
2022-08-09T01:54:59.039Z,3.08
2022-08-09T01:57:40.381Z,3.00
2022-08-09T02:00:34.544Z,3.03
2022-08-09T02:03:07.775Z,2.90
2022-08-09T02:06:03.381Z,2.92
2022-08-09T02:08:57.103Z,3.20
2022-08-09T02:11:42.030Z,3.20
2022-08-09T02:14:25.648Z,3.58
2022-08-09T02:17:30.822Z,3.47
2022-08-09T02:19:49.647Z,2.92
2022-08-09T02:22:31.827Z,2.90
2022-08-09T02:25:15.272Z,3.60
2022-08-09T02:28:00.396Z,3.72
2022-08-09T02:30:41.737Z,2.97
2022-08-09T02:33:14.444Z,2.97
2022-08-09T02:36:03.350Z,3.13
2022-08-09T02:38:38.495Z,3.13
2022-08-09T02:41:10.757Z,3.00
2022-08-09T02:43:54.526Z,3.10
2022-08-09T02:46:30.336Z,3.00
2022-08-09T02:49:04.695Z,3.40
2022-08-09T02:51:40.608Z,2.67
2022-08-09T02:54:14.388Z,2.50
2022-08-09T02:56:51.494Z,3.58
2022-08-09T02:59:36.498Z,3.60
2022-08-09T03:02:11.992Z,3.65
2022-08-09T03:04:43.195Z,3.50
2022-08-09T03:07:14.668Z,3.10
2022-08-09T03:09:53.886Z,3.10
2022-08-09T03:12:27.451Z,3.40
2022-08-09T03:14:58.699Z,3.03
2022-08-09T03:17:30.618Z,3.50
2022-08-09T03:20:05.180Z,2.90
2022-08-09T03:22:44.756Z,3.25
2022-08-09T03:25:21.898Z,3.70
2022-08-09T03:27:58.120Z,3.25
2022-08-09T03:30:34.117Z,3.45
2022-08-09T03:33:15.314Z,2.97
2022-08-09T03:36:16.037Z,3.70
2022-08-09T03:38:42.604Z,3.50
2022-08-09T03:41:14.695Z,3.80
2022-08-09T03:44:02.784Z,3.40
2022-08-09T03:46:35.270Z,4.78
2022-08-09T03:49:08.098Z,3.40
2022-08-09T03:51:55.980Z,3.53
2022-08-09T03:54:32.506Z,3.60
2022-08-09T03:57:18.583Z,3.85
2022-08-09T03:59:54.211Z,4.10
2022-08-09T04:02:28.284Z,4.40
2022-08-09T04:05:06.290Z,4.00
2022-08-09T04:07:52.958Z,4.22
2022-08-09T04:10:29.635Z,3.70
2022-08-09T04:13:04.499Z,3.20
2022-08-09T04:16:18.613Z,3.70
2022-08-09T04:18:24.947Z,4.07
2022-08-09T04:20:55.710Z,3.95
2022-08-09T04:23:25.902Z,4.45
2022-08-09T04:25:56.469Z,3.15
2022-08-09T04:28:34.003Z,3.03
2022-08-09T04:31:10.231Z,3.30
2022-08-09T04:33:51.981Z,3.63
2022-08-09T04:36:27.115Z,3.40
2022-08-09T04:38:59.199Z,3.95
2022-08-09T04:41:32.502Z,3.55
2022-08-09T04:44:05.281Z,3.70
2022-08-09T04:46:56.858Z,3.80
2022-08-09T04:49:40.268Z,3.65
2022-08-09T04:52:18.597Z,4.43
2022-08-09T04:54:52.461Z,4.20
2022-08-09T04:57:24.425Z,4.20
2022-08-09T04:59:56.308Z,4.18
2022-08-09T05:02:25.996Z,3.85
2022-08-09T05:04:57.088Z,4.20
2022-08-09T05:07:31.855Z,3.92
2022-08-09T05:10:01.716Z,3.97
2022-08-09T05:12:33.079Z,4.03
2022-08-09T05:15:11.620Z,4.07
2022-08-09T05:18:50.488Z,3.93
2022-08-09T05:20:42.567Z,3.73
2022-08-09T05:23:53.843Z,3.60
2022-08-09T05:26:06.761Z,3.10
2022-08-09T05:28:36.997Z,3.57
2022-08-09T05:31:09.646Z,3.80
2022-08-09T05:33:42.401Z,3.80
2022-08-09T05:36:11.875Z,2.80
2022-08-09T05:38:46.281Z,3.00
2022-08-09T05:41:16.160Z,3.60
2022-08-09T05:43:49.057Z,3.03
2022-08-09T05:46:18.943Z,3.47
2022-08-09T05:48:48.662Z,3.77
2022-08-09T05:51:42.974Z,3.60
2022-08-09T05:54:17.972Z,3.37
2022-08-09T05:56:54.871Z,3.00
2022-08-09T05:59:24.662Z,3.20
2022-08-09T06:01:58.907Z,2.90
2022-08-09T06:04:34.879Z,3.90
2022-08-09T06:07:05.172Z,3.90
2022-08-09T06:09:54.925Z,4.10
2022-08-09T06:12:26.388Z,3.73
2022-08-09T06:14:56.996Z,3.63
2022-08-09T06:17:39.993Z,3.13
2022-08-09T06:20:11.391Z,3.63
2022-08-09T06:22:47.639Z,3.40
2022-08-09T06:25:21.153Z,3.27
2022-08-09T06:27:51.880Z,3.60
2022-08-09T06:30:21.420Z,3.90
2022-08-09T06:32:58.900Z,3.90
2022-08-09T06:35:57.726Z,3.17
2022-08-09T06:38:36.365Z,4.30
2022-08-09T06:41:18.177Z,3.50
2022-08-09T06:43:48.947Z,3.90
2022-08-09T06:46:39.656Z,3.87
2022-08-09T06:49:08.302Z,3.73
2022-08-09T06:51:40.082Z,3.90
2022-08-09T06:54:13.937Z,4.50
2022-08-09T06:56:46.335Z,4.10
2022-08-09T07:00:50.510Z,4.10
2022-08-09T07:02:05.352Z,3.90
2022-08-09T07:04:34.601Z,4.20
2022-08-09T07:07:05.199Z,4.20
2022-08-09T07:09:57.310Z,4.70
2022-08-09T07:12:38.066Z,4.90
2022-08-09T07:16:36.392Z,4.20
2022-08-09T07:18:02.488Z,4.23
2022-08-09T07:20:32.188Z,4.10
2022-08-09T07:23:01.402Z,3.73
2022-08-09T07:25:31.018Z,3.60
2022-08-09T07:28:09.517Z,3.83
2022-08-09T07:30:38.746Z,4.00
2022-08-09T07:33:10.362Z,3.40
2022-08-09T07:35:54.424Z,3.33
2022-08-09T07:38:24.014Z,3.80
2022-08-09T07:41:11.871Z,3.47
2022-08-09T07:43:50.170Z,3.90
2022-08-09T07:46:27.987Z,3.13
2022-08-09T07:49:00.436Z,3.77
2022-08-09T07:52:04.805Z,3.23
2022-08-09T07:54:27.990Z,3.20
2022-08-09T07:56:59.548Z,3.00
2022-08-09T07:59:45.749Z,3.40
2022-08-09T08:02:24.667Z,3.23
2022-08-09T08:04:55.900Z,2.80
2022-08-09T08:08:44.514Z,3.50
2022-08-09T08:10:14.942Z,3.23
2022-08-09T08:12:47.835Z,3.77
2022-08-09T08:15:24.087Z,3.07
2022-08-09T08:17:58.437Z,3.80
2022-08-09T08:20:33.015Z,2.87
2022-08-09T08:23:16.248Z,3.17
2022-08-09T08:25:50.407Z,3.33
2022-08-09T08:28:35.697Z,3.10
2022-08-09T08:31:14.343Z,3.50
2022-08-09T08:33:53.058Z,3.20
2022-08-09T08:36:29.701Z,3.00
2022-08-09T08:39:08.613Z,3.10
2022-08-09T08:41:51.725Z,3.00
2022-08-09T08:44:28.728Z,3.43
2022-08-09T08:47:05.123Z,3.37
2022-08-09T08:49:48.325Z,3.40
2022-08-09T08:52:52.827Z,3.30
2022-08-09T08:55:11.557Z,2.80
2022-08-09T08:57:57.165Z,2.43
2022-08-09T09:00:30.527Z,2.97
2022-08-09T09:03:11.326Z,3.83
2022-08-09T09:05:59.156Z,2.80
2022-08-09T09:08:37.912Z,3.30
2022-08-09T09:11:13.400Z,2.70
2022-08-09T09:13:56.997Z,3.40
2022-08-09T09:16:34.048Z,2.70
2022-08-09T09:19:37.477Z,2.50
2022-08-09T09:22:07.582Z,3.10
2022-08-09T09:24:40.492Z,2.80
2022-08-09T09:28:03.084Z,2.63
2022-08-09T09:33:16.378Z,3.00
2022-08-09T09:36:01.971Z,3.23
2022-08-09T09:38:48.353Z,3.20
2022-08-09T09:41:49.503Z,2.50
2022-08-09T09:44:27.733Z,2.97
2022-08-09T09:47:08.486Z,2.90
2022-08-09T09:50:07.091Z,2.83
2022-08-09T09:52:36.028Z,3.03
2022-08-09T09:55:23.734Z,2.70
2022-08-09T09:58:01.433Z,2.90
2022-08-09T10:00:34.640Z,2.77
2022-08-09T10:03:11.780Z,3.00
2022-08-09T10:06:07.302Z,2.90
2022-08-09T10:08:43.349Z,2.73
2022-08-09T10:11:59.918Z,2.70
2022-08-09T10:14:27.456Z,2.70
2022-08-09T10:17:39.906Z,2.67
2022-08-09T10:20:03.340Z,2.60
2022-08-09T10:22:34.984Z,2.77
2022-08-09T10:25:12.205Z,5.27
2022-08-09T10:27:55.868Z,2.40
2022-08-09T10:33:29.775Z,2.90
2022-08-09T10:36:11.826Z,2.57
2022-08-09T10:38:56.201Z,2.63
2022-08-09T10:41:28.903Z,2.63
2022-08-09T10:44:01.950Z,2.67
2022-08-09T10:48:12.144Z,2.50
2022-08-09T10:50:16.172Z,2.60
2022-08-09T10:53:10.283Z,2.80
2022-08-09T10:55:57.916Z,3.00
2022-08-09T10:58:37.341Z,2.60
2022-08-09T11:03:19.395Z,2.70
2022-08-09T11:04:32.809Z,2.63
2022-08-09T11:07:55.034Z,2.50
2022-08-09T11:10:59.918Z,2.70
2022-08-09T11:13:50.967Z,2.63
2022-08-09T11:16:38.262Z,2.47
2022-08-09T11:19:10.391Z,2.70
2022-08-09T11:22:10.289Z,2.80
2022-08-09T11:25:11.938Z,2.70
2022-08-09T11:28:04.334Z,2.70
2022-08-09T11:30:48.048Z,2.87
2022-08-09T11:33:44.346Z,2.50
2022-08-09T11:36:30.514Z,2.60
2022-08-09T11:39:06.593Z,2.40
2022-08-09T11:41:40.694Z,2.40
2022-08-09T11:44:10.403Z,2.30
2022-08-09T11:46:57.027Z,2.50
2022-08-09T11:50:55.787Z,2.43
2022-08-09T11:53:55.197Z,2.27
2022-08-09T11:56:42.034Z,2.67
2022-08-09T11:59:30.571Z,2.70
2022-08-09T12:02:18.187Z,3.43
2022-08-09T12:04:59.114Z,2.40
2022-08-09T12:07:41.710Z,2.87
2022-08-09T12:10:32.033Z,2.53
2022-08-09T12:13:03.724Z,2.37
2022-08-09T12:15:52.579Z,2.63
2022-08-09T12:18:30.353Z,2.37
2022-08-09T12:21:11.046Z,2.60
2022-08-09T12:24:08.770Z,2.40
2022-08-09T12:28:58.956Z,2.53
2022-08-09T12:29:43.819Z,2.37
2022-08-09T12:32:27.858Z,2.63
2022-08-09T12:35:04.722Z,2.47
2022-08-09T12:37:50.681Z,2.30
2022-08-09T12:40:26.738Z,2.50
2022-08-09T12:42:59.667Z,2.60
2022-08-09T12:45:34.471Z,2.57
2022-08-09T12:48:31.268Z,2.50
2022-08-09T12:51:03.835Z,2.50
2022-08-09T12:53:38.801Z,2.67
2022-08-09T12:56:43.697Z,2.77
2022-08-09T12:59:15.391Z,2.20
2022-08-09T13:01:50.125Z,2.20
2022-08-09T13:04:36.022Z,2.17
2022-08-09T13:07:19.609Z,2.27
2022-08-09T13:10:12.096Z,2.20
2022-08-09T13:13:09.490Z,2.40
2022-08-09T13:15:57.658Z,2.50
2022-08-09T13:18:29.294Z,2.57
2022-08-09T13:22:33.166Z,2.10
2022-08-09T13:24:16.135Z,2.37
2022-08-09T13:26:58.052Z,2.40
2022-08-09T13:30:03.004Z,2.30
2022-08-09T13:32:26.465Z,2.10
2022-08-09T13:34:58.230Z,2.10
2022-08-09T13:37:52.269Z,2.37
2022-08-09T13:41:54.258Z,2.17
2022-08-09T13:43:15.973Z,2.00
2022-08-09T13:46:07.852Z,2.37
2022-08-09T13:48:42.225Z,2.03
2022-08-09T13:51:11.525Z,2.37
2022-08-09T13:53:44.653Z,2.00
2022-08-09T13:56:15.427Z,2.40
2022-08-09T13:58:47.496Z,2.40
2022-08-09T14:01:56.277Z,3.07
2022-08-09T14:04:11.207Z,2.60
2022-08-09T14:06:43.873Z,3.37
2022-08-09T14:09:15.708Z,2.17
2022-08-09T14:11:48.349Z,2.20
2022-08-09T14:14:26.150Z,2.27
2022-08-09T14:16:57.732Z,2.30
2022-08-09T14:19:30.276Z,2.20
2022-08-09T14:22:02.973Z,2.43
2022-08-09T14:24:33.857Z,2.40
2022-08-09T14:27:19.684Z,2.57
2022-08-09T14:30:35.159Z,2.33
2022-08-09T14:32:38.894Z,2.40
2022-08-09T14:35:10.192Z,2.07
2022-08-09T14:38:01.399Z,3.20
2022-08-09T14:41:00.484Z,2.70
2022-08-09T14:43:19.212Z,2.10
2022-08-09T14:46:57.305Z,2.27
2022-08-09T14:48:37.603Z,2.07
2022-08-09T14:51:09.508Z,2.40
2022-08-09T14:53:43.495Z,2.10
2022-08-09T14:56:26.870Z,2.00
2022-08-09T14:58:57.967Z,2.47
2022-08-09T15:01:27.248Z,2.30
2022-08-09T15:03:56.475Z,2.10
2022-08-09T15:06:25.698Z,2.27
2022-08-09T15:08:59.189Z,1.87
2022-08-09T15:11:28.748Z,2.33
2022-08-09T15:14:04.285Z,2.27
2022-08-09T15:16:33.978Z,2.20
2022-08-09T15:19:05.895Z,1.90
2022-08-09T15:21:56.065Z,1.87
2022-08-09T15:24:29.235Z,2.10
2022-08-09T15:26:59.681Z,2.00
2022-08-09T15:30:57.250Z,1.83
2022-08-09T15:32:29.783Z,2.00
2022-08-09T15:35:01.166Z,2.10
2022-08-09T15:37:56.143Z,2.30
2022-08-09T15:40:32.385Z,2.00
2022-08-09T15:43:03.030Z,1.90
2022-08-09T15:46:07.242Z,1.83
2022-08-09T15:48:28.894Z,2.00
2022-08-09T15:50:59.224Z,2.20
2022-08-09T15:54:05.417Z,1.90
2022-08-09T15:56:28.472Z,2.53
2022-08-09T15:58:59.515Z,2.10
2022-08-09T16:01:31.537Z,2.00
2022-08-09T16:04:05.542Z,2.37
2022-08-09T16:06:44.827Z,2.33
2022-08-09T16:09:51.470Z,2.50
2022-08-09T16:12:11.311Z,2.30
2022-08-09T16:14:41.122Z,2.10
2022-08-09T16:17:17.282Z,2.40
2022-08-09T16:19:49.699Z,2.30
2022-08-09T16:22:34.764Z,2.73
2022-08-09T16:25:06.907Z,2.30
2022-08-09T16:27:38.225Z,2.87
2022-08-09T16:30:15.376Z,2.20
2022-08-09T16:33:11.645Z,2.23
2022-08-09T16:35:56.748Z,2.20
2022-08-09T16:38:27.913Z,2.60
2022-08-09T16:40:58.948Z,2.50
2022-08-09T16:43:33.560Z,2.40
2022-08-09T16:46:12.350Z,2.27
2022-08-09T16:48:53.083Z,2.90
2022-08-09T16:51:28.620Z,2.80
2022-08-09T16:54:26.017Z,2.43
2022-08-09T16:56:49.465Z,2.40
2022-08-09T16:59:19.360Z,2.90
2022-08-09T17:01:53.125Z,2.63
2022-08-09T17:04:28.457Z,2.40
2022-08-09T17:08:44.993Z,2.83
2022-08-09T17:09:48.740Z,2.37
2022-08-09T17:12:19.639Z,2.90
2022-08-09T17:14:54.948Z,2.63
2022-08-09T17:17:27.916Z,2.50
2022-08-09T17:20:28.209Z,2.57
2022-08-09T17:22:52.402Z,3.37
2022-08-09T17:25:23.568Z,2.33
2022-08-09T17:27:54.842Z,2.30
2022-08-09T17:30:28.103Z,2.57
2022-08-09T17:33:01.059Z,2.50
2022-08-09T17:35:41.096Z,2.53
2022-08-09T17:38:13.284Z,3.10
2022-08-09T17:40:53.757Z,2.40
2022-08-09T17:43:34.641Z,2.80
2022-08-09T17:46:09.055Z,2.50
2022-08-09T17:48:52.288Z,2.80
2022-08-09T17:51:23.368Z,3.00
2022-08-09T17:53:55.787Z,2.33
2022-08-09T17:56:29.104Z,2.60
2022-08-09T17:59:11.946Z,2.60
2022-08-09T18:02:06.117Z,2.50
2022-08-09T18:04:34.945Z,2.53
2022-08-09T18:07:07.601Z,2.70
2022-08-09T18:09:41.359Z,2.90
2022-08-09T18:12:17.291Z,2.80
2022-08-09T18:14:54.531Z,2.97
2022-08-09T18:17:27.464Z,2.67
2022-08-09T18:20:57.445Z,2.67
2022-08-09T18:23:07.615Z,2.53
2022-08-09T18:25:52.731Z,2.67
2022-08-09T18:30:40.977Z,2.73
2022-08-09T18:31:25.068Z,2.87
2022-08-09T18:34:08.077Z,2.30
2022-08-09T18:36:37.294Z,2.80
2022-08-09T18:39:15.906Z,2.60
2022-08-09T18:41:53.212Z,3.20
2022-08-09T18:44:25.834Z,2.67
2022-08-09T18:47:04.225Z,2.70
2022-08-09T18:49:41.414Z,2.33
2022-08-09T18:52:13.392Z,2.70
2022-08-09T18:54:49.662Z,2.50
2022-08-09T18:57:23.857Z,2.50
2022-08-09T18:59:56.473Z,2.67
2022-08-09T19:02:32.087Z,2.53
2022-08-09T19:05:20.490Z,2.90
2022-08-09T19:08:04.369Z,2.47
2022-08-09T19:10:41.030Z,2.80
2022-08-09T19:13:20.526Z,2.67
2022-08-09T19:15:55.498Z,2.43
2022-08-09T19:18:34.109Z,2.40
2022-08-09T19:21:09.873Z,2.83
2022-08-09T19:24:36.495Z,2.57
2022-08-09T19:26:34.706Z,2.70
2022-08-09T19:29:09.778Z,2.67
2022-08-09T19:31:51.274Z,2.87
2022-08-09T19:34:24.818Z,2.60
2022-08-09T19:36:57.681Z,2.70
2022-08-09T19:39:43.445Z,2.83
2022-08-09T19:42:19.748Z,3.17
2022-08-09T19:44:51.077Z,2.50
2022-08-09T19:47:23.621Z,2.67
2022-08-09T19:50:07.381Z,2.90
2022-08-09T19:52:49.356Z,3.47
2022-08-09T19:55:25.686Z,3.33
2022-08-09T19:57:56.444Z,2.63
2022-08-09T20:00:25.959Z,2.90
2022-08-09T20:04:07.139Z,2.77
2022-08-09T20:05:46.755Z,2.73
2022-08-09T20:08:24.999Z,2.90
2022-08-09T20:11:04.950Z,3.00
2022-08-09T20:13:37.218Z,3.03
2022-08-09T20:16:35.537Z,3.07
2022-08-09T20:19:43.028Z,3.13
2022-08-09T20:21:56.277Z,2.80
2022-08-09T20:24:29.478Z,2.47
2022-08-09T20:27:07.835Z,2.60
2022-08-09T20:29:39.778Z,2.93
2022-08-09T20:32:31.301Z,2.77
2022-08-09T20:35:01.429Z,3.20
2022-08-09T20:37:37.948Z,3.30
2022-08-09T20:40:27.217Z,3.40
2022-08-09T20:42:59.895Z,3.10
2022-08-09T20:45:56.922Z,2.60
2022-08-09T20:48:30.614Z,2.80
2022-08-09T20:51:01.361Z,3.67
2022-08-09T20:53:36.372Z,3.27
2022-08-09T20:56:20.202Z,3.27
2022-08-09T20:58:58.752Z,3.00
2022-08-09T21:01:35.331Z,3.10
2022-08-09T21:05:53.958Z,3.30
2022-08-09T21:07:14.173Z,4.50
2022-08-09T21:09:56.217Z,2.83
2022-08-09T21:15:23.674Z,3.53
2022-08-09T21:18:22.510Z,3.60
2022-08-09T21:20:54.438Z,3.40
2022-08-09T21:23:26.599Z,3.70
2022-08-09T21:26:15.675Z,3.80
2022-08-09T21:28:55.890Z,3.87
2022-08-09T21:31:48.911Z,3.07
2022-08-09T21:34:28.453Z,3.80
2022-08-09T21:36:58.175Z,3.67
2022-08-09T21:39:28.171Z,3.03
2022-08-09T21:42:11.825Z,2.67
2022-08-09T21:44:42.854Z,3.40
2022-08-09T21:47:18.079Z,2.90
2022-08-09T21:49:49.561Z,2.80
2022-08-09T21:52:22.197Z,3.27
2022-08-09T21:55:02.926Z,2.67
2022-08-09T21:57:38.126Z,3.20
2022-08-09T22:00:32.161Z,3.00
2022-08-09T22:03:06.058Z,3.07
2022-08-09T22:05:42.386Z,3.10
2022-08-09T22:08:15.193Z,3.47
2022-08-09T22:11:00.825Z,3.00
2022-08-09T22:13:36.858Z,3.37
2022-08-09T22:16:08.900Z,3.60
2022-08-09T22:18:53.453Z,3.03
2022-08-09T22:21:50.194Z,3.73
2022-08-09T22:24:24.196Z,3.40
2022-08-09T22:26:55.013Z,3.80
2022-08-09T22:29:38.336Z,3.70
2022-08-09T22:32:30.018Z,3.17
2022-08-09T22:35:05.886Z,3.50
2022-08-09T22:37:40.546Z,3.40
2022-08-09T22:40:20.014Z,3.50
2022-08-09T22:42:49.666Z,3.97
2022-08-09T22:48:18.731Z,3.77
2022-08-09T22:48:34.273Z,3.40
2022-08-09T22:50:56.906Z,3.53
2022-08-09T22:53:44.174Z,3.37
2022-08-09T22:56:32.964Z,3.30
2022-08-09T22:59:06.037Z,3.27
2022-08-09T23:01:53.550Z,3.60
2022-08-09T23:04:25.695Z,3.20
2022-08-09T23:07:14.075Z,2.90
2022-08-09T23:09:46.874Z,3.47
2022-08-09T23:12:15.984Z,3.33
2022-08-09T23:14:45.099Z,3.53
2022-08-09T23:17:15.469Z,3.80
2022-08-09T23:20:01.054Z,3.47
2022-08-09T23:22:33.819Z,4.10
2022-08-09T23:25:05.922Z,3.50
2022-08-09T23:27:35.376Z,3.37
2022-08-09T23:30:06.726Z,4.07
2022-08-09T23:32:35.862Z,3.77
2022-08-09T23:35:05.913Z,3.20
2022-08-09T23:37:35.295Z,3.57
2022-08-09T23:40:07.344Z,3.10
2022-08-09T23:42:36.624Z,2.90
2022-08-09T23:45:09.021Z,3.33
2022-08-09T23:47:38.871Z,2.63
2022-08-09T23:50:09.468Z,3.07
2022-08-09T23:52:38.641Z,3.03
2022-08-09T23:55:12.630Z,3.35
2022-08-09T23:58:07.887Z,3.53
